sensor_id;sensor_type;location;lat;lon;timestamp;P1;durP1;ratioP1;P2;durP2;ratioP2
21729;SDS011;11027;51.030;13.812;2023-04-07T00:02:11;11.02;;;7.97;;
21729;SDS011;11027;51.030;13.812;2023-04-07T00:04:37;11.75;;;7.55;;
21729;SDS011;11027;51.030;13.812;2023-04-07T00:07:02;10.20;;;7.15;;
21729;SDS011;11027;51.030;13.812;2023-04-07T00:09:27;12.45;;;7.32;;
21729;SDS011;11027;51.030;13.812;2023-04-07T00:11:52;11.90;;;6.78;;
21729;SDS011;11027;51.030;13.812;2023-04-07T00:14:18;14.07;;;7.03;;
21729;SDS011;11027;51.030;13.812;2023-04-07T00:16:43;9.40;;;6.60;;
21729;SDS011;11027;51.030;13.812;2023-04-07T00:19:08;9.43;;;6.72;;
21729;SDS011;11027;51.030;13.812;2023-04-07T00:21:33;12.02;;;6.68;;
21729;SDS011;11027;51.030;13.812;2023-04-07T00:23:59;9.02;;;6.38;;
21729;SDS011;11027;51.030;13.812;2023-04-07T00:26:24;9.80;;;6.68;;
21729;SDS011;11027;51.030;13.812;2023-04-07T00:28:55;10.83;;;6.23;;
21729;SDS011;11027;51.030;13.812;2023-04-07T00:31:20;9.60;;;6.70;;
21729;SDS011;11027;51.030;13.812;2023-04-07T00:33:45;9.30;;;6.40;;
21729;SDS011;11027;51.030;13.812;2023-04-07T00:36:12;9.77;;;6.68;;
21729;SDS011;11027;51.030;13.812;2023-04-07T00:38:37;11.60;;;6.10;;
21729;SDS011;11027;51.030;13.812;2023-04-07T00:41:02;9.98;;;6.22;;
21729;SDS011;11027;51.030;13.812;2023-04-07T00:43:28;9.20;;;6.43;;
21729;SDS011;11027;51.030;13.812;2023-04-07T00:45:53;9.85;;;6.22;;
21729;SDS011;11027;51.030;13.812;2023-04-07T00:48:18;9.43;;;6.45;;
21729;SDS011;11027;51.030;13.812;2023-04-07T00:50:44;9.77;;;6.72;;
21729;SDS011;11027;51.030;13.812;2023-04-07T00:53:10;9.43;;;6.15;;
21729;SDS011;11027;51.030;13.812;2023-04-07T00:55:36;10.90;;;6.82;;
21729;SDS011;11027;51.030;13.812;2023-04-07T00:58:01;10.52;;;6.65;;
21729;SDS011;11027;51.030;13.812;2023-04-07T01:00:28;10.18;;;6.68;;
21729;SDS011;11027;51.030;13.812;2023-04-07T01:02:57;8.02;;;5.82;;
21729;SDS011;11027;51.030;13.812;2023-04-07T01:05:39;10.32;;;6.05;;
21729;SDS011;11027;51.030;13.812;2023-04-07T01:08:12;8.80;;;6.53;;
21729;SDS011;11027;51.030;13.812;2023-04-07T01:10:49;10.47;;;6.03;;
21729;SDS011;11027;51.030;13.812;2023-04-07T01:13:35;11.25;;;6.22;;
21729;SDS011;11027;51.030;13.812;2023-04-07T01:16:08;9.55;;;5.97;;
21729;SDS011;11027;51.030;13.812;2023-04-07T01:18:37;8.75;;;6.20;;
21729;SDS011;11027;51.030;13.812;2023-04-07T01:21:13;11.05;;;6.63;;
21729;SDS011;11027;51.030;13.812;2023-04-07T01:26:31;10.57;;;6.50;;
21729;SDS011;11027;51.030;13.812;2023-04-07T01:31:38;9.25;;;6.07;;
21729;SDS011;11027;51.030;13.812;2023-04-07T01:34:05;8.90;;;6.30;;
21729;SDS011;11027;51.030;13.812;2023-04-07T01:36:34;9.95;;;5.70;;
21729;SDS011;11027;51.030;13.812;2023-04-07T01:38:59;9.45;;;5.63;;
21729;SDS011;11027;51.030;13.812;2023-04-07T01:41:25;9.32;;;5.63;;
21729;SDS011;11027;51.030;13.812;2023-04-07T01:43:52;6.60;;;5.40;;
21729;SDS011;11027;51.030;13.812;2023-04-07T01:46:19;8.77;;;5.97;;
21729;SDS011;11027;51.030;13.812;2023-04-07T01:48:45;8.45;;;5.88;;
21729;SDS011;11027;51.030;13.812;2023-04-07T01:51:12;8.50;;;5.70;;
21729;SDS011;11027;51.030;13.812;2023-04-07T01:53:41;7.43;;;5.75;;
21729;SDS011;11027;51.030;13.812;2023-04-07T01:56:06;9.32;;;5.97;;
21729;SDS011;11027;51.030;13.812;2023-04-07T01:58:32;8.23;;;5.75;;
21729;SDS011;11027;51.030;13.812;2023-04-07T02:00:57;10.35;;;6.13;;
21729;SDS011;11027;51.030;13.812;2023-04-07T02:03:23;9.63;;;6.60;;
21729;SDS011;11027;51.030;13.812;2023-04-07T02:06:14;10.50;;;6.88;;
21729;SDS011;11027;51.030;13.812;2023-04-07T02:08:45;10.85;;;6.45;;
21729;SDS011;11027;51.030;13.812;2023-04-07T02:11:12;10.05;;;6.88;;
21729;SDS011;11027;51.030;13.812;2023-04-07T02:13:41;10.98;;;6.65;;
21729;SDS011;11027;51.030;13.812;2023-04-07T02:16:08;9.25;;;6.53;;
21729;SDS011;11027;51.030;13.812;2023-04-07T02:18:34;11.48;;;6.35;;
21729;SDS011;11027;51.030;13.812;2023-04-07T02:21:01;9.85;;;6.60;;
21729;SDS011;11027;51.030;13.812;2023-04-07T02:23:29;8.93;;;6.88;;
21729;SDS011;11027;51.030;13.812;2023-04-07T02:25:55;9.70;;;6.85;;
21729;SDS011;11027;51.030;13.812;2023-04-07T02:28:22;18.40;;;7.43;;
21729;SDS011;11027;51.030;13.812;2023-04-07T02:30:47;11.35;;;7.10;;
21729;SDS011;11027;51.030;13.812;2023-04-07T02:33:12;13.88;;;7.28;;
21729;SDS011;11027;51.030;13.812;2023-04-07T02:35:38;10.63;;;7.15;;
21729;SDS011;11027;51.030;13.812;2023-04-07T02:38:03;10.20;;;6.93;;
21729;SDS011;11027;51.030;13.812;2023-04-07T02:40:28;9.73;;;6.90;;
21729;SDS011;11027;51.030;13.812;2023-04-07T02:42:53;9.98;;;7.32;;
21729;SDS011;11027;51.030;13.812;2023-04-07T02:45:19;10.40;;;7.70;;
21729;SDS011;11027;51.030;13.812;2023-04-07T02:47:44;11.70;;;7.55;;
21729;SDS011;11027;51.030;13.812;2023-04-07T02:50:10;10.45;;;7.55;;
21729;SDS011;11027;51.030;13.812;2023-04-07T02:52:35;9.65;;;7.10;;
21729;SDS011;11027;51.030;13.812;2023-04-07T02:55:00;12.15;;;7.40;;
21729;SDS011;11027;51.030;13.812;2023-04-07T02:57:25;11.60;;;7.40;;
21729;SDS011;11027;51.030;13.812;2023-04-07T02:59:51;9.38;;;6.95;;
21729;SDS011;11027;51.030;13.812;2023-04-07T03:02:16;11.88;;;6.82;;
21729;SDS011;11027;51.030;13.812;2023-04-07T03:04:41;8.88;;;6.63;;
21729;SDS011;11027;51.030;13.812;2023-04-07T03:07:06;10.15;;;7.00;;
21729;SDS011;11027;51.030;13.812;2023-04-07T03:09:32;9.55;;;6.85;;
21729;SDS011;11027;51.030;13.812;2023-04-07T03:11:57;10.70;;;6.45;;
21729;SDS011;11027;51.030;13.812;2023-04-07T03:14:22;9.60;;;6.47;;
21729;SDS011;11027;51.030;13.812;2023-04-07T03:16:47;9.80;;;6.65;;
21729;SDS011;11027;51.030;13.812;2023-04-07T03:19:13;9.02;;;6.55;;
21729;SDS011;11027;51.030;13.812;2023-04-07T03:21:38;10.20;;;6.78;;
21729;SDS011;11027;51.030;13.812;2023-04-07T03:24:04;11.30;;;6.28;;
21729;SDS011;11027;51.030;13.812;2023-04-07T03:26:30;9.85;;;6.40;;
21729;SDS011;11027;51.030;13.812;2023-04-07T03:28:56;8.57;;;6.55;;
21729;SDS011;11027;51.030;13.812;2023-04-07T03:31:21;9.20;;;6.60;;
21729;SDS011;11027;51.030;13.812;2023-04-07T03:33:47;9.70;;;6.03;;
21729;SDS011;11027;51.030;13.812;2023-04-07T03:36:13;10.50;;;7.18;;
21729;SDS011;11027;51.030;13.812;2023-04-07T03:38:39;9.35;;;5.95;;
21729;SDS011;11027;51.030;13.812;2023-04-07T03:41:04;9.15;;;6.18;;
21729;SDS011;11027;51.030;13.812;2023-04-07T03:43:29;10.13;;;6.63;;
21729;SDS011;11027;51.030;13.812;2023-04-07T03:45:54;10.38;;;6.25;;
21729;SDS011;11027;51.030;13.812;2023-04-07T03:48:20;8.45;;;6.47;;
21729;SDS011;11027;51.030;13.812;2023-04-07T03:50:45;9.18;;;6.50;;
21729;SDS011;11027;51.030;13.812;2023-04-07T03:53:11;12.25;;;6.38;;
21729;SDS011;11027;51.030;13.812;2023-04-07T03:55:39;11.02;;;6.90;;
21729;SDS011;11027;51.030;13.812;2023-04-07T03:58:04;10.23;;;6.85;;
21729;SDS011;11027;51.030;13.812;2023-04-07T04:00:30;11.00;;;6.85;;
21729;SDS011;11027;51.030;13.812;2023-04-07T04:02:57;12.38;;;6.82;;
21729;SDS011;11027;51.030;13.812;2023-04-07T04:05:22;11.98;;;7.07;;
21729;SDS011;11027;51.030;13.812;2023-04-07T04:07:48;11.57;;;7.00;;
21729;SDS011;11027;51.030;13.812;2023-04-07T04:10:15;10.70;;;6.70;;
21729;SDS011;11027;51.030;13.812;2023-04-07T04:12:40;13.68;;;7.55;;
21729;SDS011;11027;51.030;13.812;2023-04-07T04:15:06;11.77;;;7.03;;
21729;SDS011;11027;51.030;13.812;2023-04-07T04:17:31;10.68;;;6.82;;
21729;SDS011;11027;51.030;13.812;2023-04-07T04:19:57;11.57;;;7.07;;
21729;SDS011;11027;51.030;13.812;2023-04-07T04:22:22;12.75;;;7.32;;
21729;SDS011;11027;51.030;13.812;2023-04-07T04:24:47;11.95;;;7.25;;
21729;SDS011;11027;51.030;13.812;2023-04-07T04:27:12;11.45;;;7.00;;
21729;SDS011;11027;51.030;13.812;2023-04-07T04:29:37;12.15;;;7.57;;
21729;SDS011;11027;51.030;13.812;2023-04-07T04:32:03;14.60;;;7.32;;
21729;SDS011;11027;51.030;13.812;2023-04-07T04:34:28;13.32;;;7.50;;
21729;SDS011;11027;51.030;13.812;2023-04-07T04:36:53;11.32;;;7.22;;
21729;SDS011;11027;51.030;13.812;2023-04-07T04:39:19;15.50;;;7.75;;
21729;SDS011;11027;51.030;13.812;2023-04-07T04:41:44;11.77;;;6.93;;
21729;SDS011;11027;51.030;13.812;2023-04-07T04:44:10;12.20;;;7.40;;
21729;SDS011;11027;51.030;13.812;2023-04-07T04:46:36;13.18;;;7.10;;
21729;SDS011;11027;51.030;13.812;2023-04-07T04:49:01;12.60;;;7.88;;
21729;SDS011;11027;51.030;13.812;2023-04-07T04:51:26;12.65;;;7.10;;
21729;SDS011;11027;51.030;13.812;2023-04-07T04:53:52;11.30;;;7.32;;
21729;SDS011;11027;51.030;13.812;2023-04-07T04:56:17;12.23;;;7.50;;
21729;SDS011;11027;51.030;13.812;2023-04-07T04:58:42;13.40;;;7.60;;
21729;SDS011;11027;51.030;13.812;2023-04-07T05:01:10;11.98;;;6.43;;
21729;SDS011;11027;51.030;13.812;2023-04-07T05:03:38;10.10;;;7.00;;
21729;SDS011;11027;51.030;13.812;2023-04-07T05:06:04;11.60;;;7.32;;
21729;SDS011;11027;51.030;13.812;2023-04-07T05:08:30;12.70;;;7.18;;
21729;SDS011;11027;51.030;13.812;2023-04-07T05:10:56;14.77;;;7.05;;
21729;SDS011;11027;51.030;13.812;2023-04-07T05:13:21;13.02;;;7.25;;
21729;SDS011;11027;51.030;13.812;2023-04-07T05:15:46;11.15;;;7.60;;
21729;SDS011;11027;51.030;13.812;2023-04-07T05:18:12;11.23;;;6.80;;
21729;SDS011;11027;51.030;13.812;2023-04-07T05:20:37;11.88;;;7.05;;
21729;SDS011;11027;51.030;13.812;2023-04-07T05:23:03;12.50;;;7.70;;
21729;SDS011;11027;51.030;13.812;2023-04-07T05:25:29;11.20;;;7.60;;
21729;SDS011;11027;51.030;13.812;2023-04-07T05:27:54;11.23;;;7.38;;
21729;SDS011;11027;51.030;13.812;2023-04-07T05:30:19;10.32;;;7.00;;
21729;SDS011;11027;51.030;13.812;2023-04-07T05:32:45;14.20;;;7.68;;
21729;SDS011;11027;51.030;13.812;2023-04-07T05:35:10;10.63;;;7.60;;
21729;SDS011;11027;51.030;13.812;2023-04-07T05:37:35;10.65;;;7.13;;
21729;SDS011;11027;51.030;13.812;2023-04-07T05:40:01;12.38;;;8.00;;
21729;SDS011;11027;51.030;13.812;2023-04-07T05:42:26;11.63;;;7.75;;
21729;SDS011;11027;51.030;13.812;2023-04-07T05:44:51;13.73;;;7.55;;
21729;SDS011;11027;51.030;13.812;2023-04-07T05:47:16;12.15;;;7.15;;
21729;SDS011;11027;51.030;13.812;2023-04-07T05:49:42;12.40;;;7.43;;
21729;SDS011;11027;51.030;13.812;2023-04-07T05:52:10;11.85;;;7.43;;
21729;SDS011;11027;51.030;13.812;2023-04-07T05:54:36;13.30;;;7.68;;
21729;SDS011;11027;51.030;13.812;2023-04-07T05:57:01;12.18;;;7.75;;
21729;SDS011;11027;51.030;13.812;2023-04-07T05:59:27;10.90;;;7.07;;
21729;SDS011;11027;51.030;13.812;2023-04-07T06:01:53;11.80;;;7.20;;
21729;SDS011;11027;51.030;13.812;2023-04-07T06:04:18;12.90;;;7.38;;
21729;SDS011;11027;51.030;13.812;2023-04-07T06:06:43;15.63;;;8.05;;
21729;SDS011;11027;51.030;13.812;2023-04-07T06:09:08;12.27;;;7.85;;
21729;SDS011;11027;51.030;13.812;2023-04-07T06:11:34;16.33;;;7.63;;
21729;SDS011;11027;51.030;13.812;2023-04-07T06:13:59;10.82;;;7.60;;
21729;SDS011;11027;51.030;13.812;2023-04-07T06:16:24;10.90;;;6.95;;
21729;SDS011;11027;51.030;13.812;2023-04-07T06:18:50;10.55;;;7.20;;
21729;SDS011;11027;51.030;13.812;2023-04-07T06:21:15;12.52;;;7.38;;
21729;SDS011;11027;51.030;13.812;2023-04-07T06:23:40;12.82;;;7.85;;
21729;SDS011;11027;51.030;13.812;2023-04-07T06:26:09;13.55;;;7.78;;
21729;SDS011;11027;51.030;13.812;2023-04-07T06:28:35;11.65;;;7.90;;
21729;SDS011;11027;51.030;13.812;2023-04-07T06:31:01;13.63;;;8.70;;
21729;SDS011;11027;51.030;13.812;2023-04-07T06:33:26;14.73;;;7.82;;
21729;SDS011;11027;51.030;13.812;2023-04-07T06:35:52;12.10;;;7.70;;
21729;SDS011;11027;51.030;13.812;2023-04-07T06:38:17;11.40;;;7.00;;
21729;SDS011;11027;51.030;13.812;2023-04-07T06:40:43;10.25;;;7.18;;
21729;SDS011;11027;51.030;13.812;2023-04-07T06:43:08;11.07;;;7.47;;
21729;SDS011;11027;51.030;13.812;2023-04-07T06:45:33;12.38;;;7.45;;
21729;SDS011;11027;51.030;13.812;2023-04-07T06:47:59;10.90;;;7.40;;
21729;SDS011;11027;51.030;13.812;2023-04-07T06:50:24;11.73;;;7.80;;
21729;SDS011;11027;51.030;13.812;2023-04-07T06:52:49;14.35;;;8.07;;
21729;SDS011;11027;51.030;13.812;2023-04-07T06:55:15;13.93;;;7.43;;
21729;SDS011;11027;51.030;13.812;2023-04-07T06:57:40;12.40;;;7.40;;
21729;SDS011;11027;51.030;13.812;2023-04-07T07:00:06;11.38;;;7.13;;
21729;SDS011;11027;51.030;13.812;2023-04-07T07:02:31;11.98;;;7.43;;
21729;SDS011;11027;51.030;13.812;2023-04-07T07:04:57;16.40;;;7.68;;
21729;SDS011;11027;51.030;13.812;2023-04-07T07:07:22;12.40;;;7.60;;
21729;SDS011;11027;51.030;13.812;2023-04-07T07:09:49;15.35;;;8.23;;
21729;SDS011;11027;51.030;13.812;2023-04-07T07:12:15;14.82;;;8.00;;
21729;SDS011;11027;51.030;13.812;2023-04-07T07:14:41;11.77;;;7.53;;
21729;SDS011;11027;51.030;13.812;2023-04-07T07:17:07;14.57;;;7.80;;
21729;SDS011;11027;51.030;13.812;2023-04-07T07:19:32;12.77;;;8.25;;
21729;SDS011;11027;51.030;13.812;2023-04-07T07:21:57;13.35;;;8.13;;
21729;SDS011;11027;51.030;13.812;2023-04-07T07:24:23;12.43;;;8.05;;
21729;SDS011;11027;51.030;13.812;2023-04-07T07:26:48;12.55;;;7.25;;
21729;SDS011;11027;51.030;13.812;2023-04-07T07:29:13;11.40;;;7.88;;
21729;SDS011;11027;51.030;13.812;2023-04-07T07:31:38;13.90;;;7.82;;
21729;SDS011;11027;51.030;13.812;2023-04-07T07:34:04;12.35;;;8.20;;
21729;SDS011;11027;51.030;13.812;2023-04-07T07:36:29;15.77;;;8.20;;
21729;SDS011;11027;51.030;13.812;2023-04-07T07:38:56;12.88;;;7.40;;
21729;SDS011;11027;51.030;13.812;2023-04-07T07:41:22;13.82;;;7.82;;
21729;SDS011;11027;51.030;13.812;2023-04-07T07:43:47;10.80;;;7.20;;
21729;SDS011;11027;51.030;13.812;2023-04-07T07:46:13;22.38;;;12.77;;
21729;SDS011;11027;51.030;13.812;2023-04-07T07:48:38;12.07;;;6.95;;
21729;SDS011;11027;51.030;13.812;2023-04-07T07:51:03;11.50;;;6.93;;
21729;SDS011;11027;51.030;13.812;2023-04-07T07:53:29;10.77;;;7.30;;
21729;SDS011;11027;51.030;13.812;2023-04-07T07:55:54;8.82;;;6.45;;
21729;SDS011;11027;51.030;13.812;2023-04-07T07:58:20;18.08;;;7.32;;
21729;SDS011;11027;51.030;13.812;2023-04-07T08:00:45;10.35;;;6.97;;
21729;SDS011;11027;51.030;13.812;2023-04-07T08:03:11;10.85;;;6.93;;
21729;SDS011;11027;51.030;13.812;2023-04-07T08:05:36;10.30;;;6.50;;
21729;SDS011;11027;51.030;13.812;2023-04-07T08:08:01;10.52;;;6.53;;
21729;SDS011;11027;51.030;13.812;2023-04-07T08:10:27;11.77;;;7.30;;
21729;SDS011;11027;51.030;13.812;2023-04-07T08:12:52;10.05;;;6.75;;
21729;SDS011;11027;51.030;13.812;2023-04-07T08:15:17;10.15;;;7.07;;
21729;SDS011;11027;51.030;13.812;2023-04-07T08:17:43;14.80;;;7.15;;
21729;SDS011;11027;51.030;13.812;2023-04-07T08:20:08;9.90;;;6.43;;
21729;SDS011;11027;51.030;13.812;2023-04-07T08:22:35;11.93;;;7.05;;
21729;SDS011;11027;51.030;13.812;2023-04-07T08:25:01;13.25;;;6.95;;
21729;SDS011;11027;51.030;13.812;2023-04-07T08:27:26;11.23;;;6.90;;
21729;SDS011;11027;51.030;13.812;2023-04-07T08:29:58;11.07;;;6.63;;
21729;SDS011;11027;51.030;13.812;2023-04-07T08:32:24;11.23;;;6.53;;
21729;SDS011;11027;51.030;13.812;2023-04-07T08:34:50;9.75;;;6.72;;
21729;SDS011;11027;51.030;13.812;2023-04-07T08:37:15;11.27;;;7.38;;
21729;SDS011;11027;51.030;13.812;2023-04-07T08:39:41;9.23;;;6.30;;
21729;SDS011;11027;51.030;13.812;2023-04-07T08:42:06;12.65;;;7.00;;
21729;SDS011;11027;51.030;13.812;2023-04-07T08:44:34;10.75;;;6.90;;
21729;SDS011;11027;51.030;13.812;2023-04-07T08:47:02;11.38;;;7.07;;
21729;SDS011;11027;51.030;13.812;2023-04-07T08:49:31;11.30;;;6.57;;
21729;SDS011;11027;51.030;13.812;2023-04-07T08:52:01;11.77;;;6.70;;
21729;SDS011;11027;51.030;13.812;2023-04-07T08:54:33;13.43;;;8.60;;
21729;SDS011;11027;51.030;13.812;2023-04-07T08:56:59;10.65;;;6.93;;
21729;SDS011;11027;51.030;13.812;2023-04-07T08:59:25;11.35;;;6.70;;
21729;SDS011;11027;51.030;13.812;2023-04-07T09:01:53;11.48;;;6.80;;
21729;SDS011;11027;51.030;13.812;2023-04-07T09:04:19;13.63;;;7.57;;
21729;SDS011;11027;51.030;13.812;2023-04-07T09:06:46;12.30;;;6.57;;
21729;SDS011;11027;51.030;13.812;2023-04-07T09:09:13;10.13;;;7.70;;
21729;SDS011;11027;51.030;13.812;2023-04-07T09:11:38;10.95;;;6.78;;
21729;SDS011;11027;51.030;13.812;2023-04-07T09:14:05;11.93;;;7.10;;
21729;SDS011;11027;51.030;13.812;2023-04-07T09:16:30;14.07;;;9.57;;
21729;SDS011;11027;51.030;13.812;2023-04-07T09:18:56;18.80;;;10.77;;
21729;SDS011;11027;51.030;13.812;2023-04-07T09:21:22;14.60;;;7.97;;
21729;SDS011;11027;51.030;13.812;2023-04-07T09:23:48;37.53;;;15.95;;
21729;SDS011;11027;51.030;13.812;2023-04-07T09:28:42;14.32;;;7.97;;
21729;SDS011;11027;51.030;13.812;2023-04-07T09:31:09;11.50;;;7.03;;
21729;SDS011;11027;51.030;13.812;2023-04-07T09:33:34;12.48;;;7.93;;
21729;SDS011;11027;51.030;13.812;2023-04-07T09:36:00;20.63;;;11.15;;
21729;SDS011;11027;51.030;13.812;2023-04-07T09:38:33;16.77;;;9.60;;
21729;SDS011;11027;51.030;13.812;2023-04-07T09:41:15;14.48;;;8.55;;
21729;SDS011;11027;51.030;13.812;2023-04-07T09:43:42;22.73;;;11.50;;
21729;SDS011;11027;51.030;13.812;2023-04-07T09:46:10;28.08;;;12.30;;
21729;SDS011;11027;51.030;13.812;2023-04-07T09:48:40;12.63;;;6.97;;
21729;SDS011;11027;51.030;13.812;2023-04-07T09:51:10;9.93;;;6.60;;
21729;SDS011;11027;51.030;13.812;2023-04-07T09:53:44;12.50;;;7.47;;
21729;SDS011;11027;51.030;13.812;2023-04-07T09:56:12;10.77;;;7.25;;
21729;SDS011;11027;51.030;13.812;2023-04-07T09:58:40;12.45;;;7.43;;
21729;SDS011;11027;51.030;13.812;2023-04-07T10:01:07;9.15;;;5.95;;
21729;SDS011;11027;51.030;13.812;2023-04-07T10:03:36;8.77;;;5.25;;
21729;SDS011;11027;51.030;13.812;2023-04-07T10:06:03;8.50;;;5.00;;
21729;SDS011;11027;51.030;13.812;2023-04-07T10:08:30;6.70;;;4.25;;
21729;SDS011;11027;51.030;13.812;2023-04-07T10:10:58;9.43;;;4.63;;
21729;SDS011;11027;51.030;13.812;2023-04-07T10:13:26;7.20;;;4.03;;
21729;SDS011;11027;51.030;13.812;2023-04-07T10:15:52;7.43;;;4.47;;
21729;SDS011;11027;51.030;13.812;2023-04-07T10:18:18;10.85;;;4.85;;
21729;SDS011;11027;51.030;13.812;2023-04-07T10:20:44;9.40;;;6.00;;
21729;SDS011;11027;51.030;13.812;2023-04-07T10:23:28;18.70;;;11.45;;
21729;SDS011;11027;51.030;13.812;2023-04-07T10:26:01;20.27;;;11.95;;
21729;SDS011;11027;51.030;13.812;2023-04-07T10:28:30;8.07;;;4.95;;
21729;SDS011;11027;51.030;13.812;2023-04-07T10:30:58;9.35;;;4.13;;
21729;SDS011;11027;51.030;13.812;2023-04-07T10:33:42;7.78;;;4.50;;
21729;SDS011;11027;51.030;13.812;2023-04-07T10:36:12;9.52;;;4.70;;
21729;SDS011;11027;51.030;13.812;2023-04-07T10:38:38;7.82;;;4.30;;
21729;SDS011;11027;51.030;13.812;2023-04-07T10:44:01;6.70;;;4.28;;
21729;SDS011;11027;51.030;13.812;2023-04-07T10:49:12;7.20;;;4.10;;
21729;SDS011;11027;51.030;13.812;2023-04-07T10:51:38;7.28;;;4.07;;
21729;SDS011;11027;51.030;13.812;2023-04-07T10:54:20;7.88;;;4.20;;
21729;SDS011;11027;51.030;13.812;2023-04-07T10:59:33;7.38;;;4.80;;
21729;SDS011;11027;51.030;13.812;2023-04-07T11:04:40;7.30;;;4.55;;
21729;SDS011;11027;51.030;13.812;2023-04-07T11:07:06;7.05;;;4.15;;
21729;SDS011;11027;51.030;13.812;2023-04-07T11:09:32;7.10;;;4.13;;
21729;SDS011;11027;51.030;13.812;2023-04-07T11:11:58;7.13;;;4.25;;
21729;SDS011;11027;51.030;13.812;2023-04-07T11:14:27;6.28;;;4.00;;
21729;SDS011;11027;51.030;13.812;2023-04-07T11:16:53;4.90;;;3.58;;
21729;SDS011;11027;51.030;13.812;2023-04-07T11:19:19;7.38;;;3.58;;
21729;SDS011;11027;51.030;13.812;2023-04-07T11:21:44;6.45;;;4.35;;
21729;SDS011;11027;51.030;13.812;2023-04-07T11:24:10;7.72;;;5.30;;
21729;SDS011;11027;51.030;13.812;2023-04-07T11:26:36;6.97;;;4.32;;
21729;SDS011;11027;51.030;13.812;2023-04-07T11:29:02;7.90;;;5.10;;
21729;SDS011;11027;51.030;13.812;2023-04-07T11:31:28;7.63;;;4.75;;
21729;SDS011;11027;51.030;13.812;2023-04-07T11:34:04;7.15;;;4.30;;
21729;SDS011;11027;51.030;13.812;2023-04-07T11:36:31;8.02;;;4.72;;
21729;SDS011;11027;51.030;13.812;2023-04-07T11:38:57;8.60;;;4.57;;
21729;SDS011;11027;51.030;13.812;2023-04-07T11:41:27;7.85;;;4.88;;
21729;SDS011;11027;51.030;13.812;2023-04-07T11:44:10;10.48;;;5.30;;
21729;SDS011;11027;51.030;13.812;2023-04-07T11:46:36;8.05;;;5.30;;
21729;SDS011;11027;51.030;13.812;2023-04-07T11:49:17;8.03;;;4.80;;
21729;SDS011;11027;51.030;13.812;2023-04-07T11:51:43;6.55;;;4.63;;
21729;SDS011;11027;51.030;13.812;2023-04-07T11:54:09;9.05;;;5.00;;
21729;SDS011;11027;51.030;13.812;2023-04-07T11:56:41;10.00;;;5.05;;
21729;SDS011;11027;51.030;13.812;2023-04-07T11:59:23;8.57;;;5.55;;
21729;SDS011;11027;51.030;13.812;2023-04-07T12:01:49;8.98;;;5.25;;
21729;SDS011;11027;51.030;13.812;2023-04-07T12:04:16;7.55;;;5.38;;
21729;SDS011;11027;51.030;13.812;2023-04-07T12:06:42;7.10;;;5.18;;
21729;SDS011;11027;51.030;13.812;2023-04-07T12:11:59;12.00;;;5.53;;
21729;SDS011;11027;51.030;13.812;2023-04-07T12:14:26;7.63;;;5.40;;
21729;SDS011;11027;51.030;13.812;2023-04-07T12:16:52;10.35;;;5.97;;
21729;SDS011;11027;51.030;13.812;2023-04-07T12:19:20;7.40;;;5.45;;
21729;SDS011;11027;51.030;13.812;2023-04-07T12:21:47;8.35;;;5.25;;
21729;SDS011;11027;51.030;13.812;2023-04-07T12:24:12;9.48;;;5.70;;
21729;SDS011;11027;51.030;13.812;2023-04-07T12:26:37;10.63;;;6.07;;
21729;SDS011;11027;51.030;13.812;2023-04-07T12:29:02;12.10;;;6.18;;
21729;SDS011;11027;51.030;13.812;2023-04-07T12:31:32;8.57;;;6.25;;
21729;SDS011;11027;51.030;13.812;2023-04-07T12:33:58;9.23;;;5.78;;
21729;SDS011;11027;51.030;13.812;2023-04-07T12:36:24;9.90;;;6.40;;
21729;SDS011;11027;51.030;13.812;2023-04-07T12:38:53;8.35;;;5.47;;
21729;SDS011;11027;51.030;13.812;2023-04-07T12:41:19;8.77;;;6.20;;
21729;SDS011;11027;51.030;13.812;2023-04-07T12:43:44;8.60;;;6.28;;
21729;SDS011;11027;51.030;13.812;2023-04-07T12:46:10;9.40;;;6.50;;
21729;SDS011;11027;51.030;13.812;2023-04-07T12:48:35;11.82;;;7.13;;
21729;SDS011;11027;51.030;13.812;2023-04-07T12:51:00;10.85;;;5.90;;
21729;SDS011;11027;51.030;13.812;2023-04-07T12:53:26;10.55;;;6.47;;
21729;SDS011;11027;51.030;13.812;2023-04-07T12:55:51;9.63;;;5.72;;
21729;SDS011;11027;51.030;13.812;2023-04-07T12:58:17;10.18;;;6.53;;
21729;SDS011;11027;51.030;13.812;2023-04-07T13:00:43;9.48;;;5.93;;
21729;SDS011;11027;51.030;13.812;2023-04-07T13:03:08;9.35;;;5.97;;
21729;SDS011;11027;51.030;13.812;2023-04-07T13:05:34;10.55;;;6.28;;
21729;SDS011;11027;51.030;13.812;2023-04-07T13:07:59;9.65;;;6.53;;
21729;SDS011;11027;51.030;13.812;2023-04-07T13:10:25;9.38;;;6.63;;
21729;SDS011;11027;51.030;13.812;2023-04-07T13:12:51;10.60;;;5.90;;
21729;SDS011;11027;51.030;13.812;2023-04-07T13:15:17;8.63;;;5.72;;
21729;SDS011;11027;51.030;13.812;2023-04-07T13:17:42;8.10;;;6.00;;
21729;SDS011;11027;51.030;13.812;2023-04-07T13:20:07;6.32;;;5.50;;
21729;SDS011;11027;51.030;13.812;2023-04-07T13:22:33;7.18;;;5.47;;
21729;SDS011;11027;51.030;13.812;2023-04-07T13:24:58;8.65;;;5.57;;
21729;SDS011;11027;51.030;13.812;2023-04-07T13:27:23;8.02;;;5.55;;
21729;SDS011;11027;51.030;13.812;2023-04-07T13:29:49;7.93;;;5.45;;
21729;SDS011;11027;51.030;13.812;2023-04-07T13:32:14;7.47;;;5.18;;
21729;SDS011;11027;51.030;13.812;2023-04-07T13:34:40;10.30;;;5.60;;
21729;SDS011;11027;51.030;13.812;2023-04-07T13:37:06;6.97;;;5.55;;
21729;SDS011;11027;51.030;13.812;2023-04-07T13:39:31;8.15;;;5.25;;
21729;SDS011;11027;51.030;13.812;2023-04-07T13:41:57;12.18;;;6.55;;
21729;SDS011;11027;51.030;13.812;2023-04-07T13:44:23;10.55;;;5.63;;
21729;SDS011;11027;51.030;13.812;2023-04-07T13:46:50;6.55;;;5.10;;
21729;SDS011;11027;51.030;13.812;2023-04-07T13:49:16;7.90;;;5.03;;
21729;SDS011;11027;51.030;13.812;2023-04-07T13:51:41;11.10;;;6.35;;
21729;SDS011;11027;51.030;13.812;2023-04-07T13:54:07;7.53;;;5.88;;
21729;SDS011;11027;51.030;13.812;2023-04-07T13:56:32;7.00;;;5.50;;
21729;SDS011;11027;51.030;13.812;2023-04-07T13:58:59;7.30;;;5.43;;
21729;SDS011;11027;51.030;13.812;2023-04-07T14:01:29;7.53;;;5.65;;
21729;SDS011;11027;51.030;13.812;2023-04-07T14:03:54;16.15;;;6.30;;
21729;SDS011;11027;51.030;13.812;2023-04-07T14:06:19;7.40;;;5.40;;
21729;SDS011;11027;51.030;13.812;2023-04-07T14:08:47;10.50;;;5.72;;
21729;SDS011;11027;51.030;13.812;2023-04-07T14:11:15;7.13;;;5.13;;
21729;SDS011;11027;51.030;13.812;2023-04-07T14:13:42;7.35;;;4.80;;
21729;SDS011;11027;51.030;13.812;2023-04-07T14:16:07;8.40;;;5.50;;
21729;SDS011;11027;51.030;13.812;2023-04-07T14:18:33;6.88;;;4.55;;
21729;SDS011;11027;51.030;13.812;2023-04-07T14:20:58;6.78;;;4.80;;
21729;SDS011;11027;51.030;13.812;2023-04-07T14:23:24;8.50;;;4.90;;
21729;SDS011;11027;51.030;13.812;2023-04-07T14:25:49;7.47;;;5.45;;
21729;SDS011;11027;51.030;13.812;2023-04-07T14:28:15;9.05;;;5.45;;
21729;SDS011;11027;51.030;13.812;2023-04-07T14:30:40;8.68;;;5.75;;
21729;SDS011;11027;51.030;13.812;2023-04-07T14:33:05;9.07;;;4.90;;
21729;SDS011;11027;51.030;13.812;2023-04-07T14:35:31;7.47;;;4.88;;
21729;SDS011;11027;51.030;13.812;2023-04-07T14:37:56;7.80;;;5.50;;
21729;SDS011;11027;51.030;13.812;2023-04-07T14:40:21;7.05;;;5.20;;
21729;SDS011;11027;51.030;13.812;2023-04-07T14:42:46;8.48;;;4.95;;
21729;SDS011;11027;51.030;13.812;2023-04-07T14:45:12;6.53;;;4.72;;